Time;durP1;ratioP1;P1;durP2;ratioP2;P2;SDS_P1;SDS_P2;PMS_P1;PMS_P2;Temp;Humidity;BMP_temperature;BMP_pressure;BME280_temperature;BME280_humidity;BME280_pressure;Samples;Min_cycle;Max_cycle;Signal;HPM_P1;HPM_P2
2021/01/22 00:03:37;;;;;;;2.27;2.07;;;;;4.70;98114.00;;;;10456477;28;20309;-74
2021/01/22 00:08:39;;;;;;;3.33;1.60;;;;;4.50;98147.00;;;;10438569;28;20198;-75
2021/01/22 00:13:40;;;;;;;3.47;2.30;;;;;4.30;98176.00;;;;10438434;28;20198;-75
2021/01/22 00:18:42;;;;;;;1.47;1.33;;;;;4.20;98189.00;;;;10455653;28;20190;-74
2021/01/22 00:23:43;;;;;;;2.93;2.67;;;;;4.20;98210.00;;;;10454715;28;20214;-75
2021/01/22 00:28:44;;;;;;;3.13;1.80;;;;;4.20;98199.00;;;;10438668;28;20201;-74
2021/01/22 00:33:46;;;;;;;1.97;1.50;;;;;4.10;98221.00;;;;10437839;28;20186;-75
2021/01/22 00:38:48;;;;;;;2.67;1.60;;;;;4.00;98237.00;;;;10438027;28;20230;-75
2021/01/22 00:43:49;;;;;;;2.47;2.27;;;;;4.00;98250.00;;;;10453347;28;20217;-74
2021/01/22 00:48:50;;;;;;;3.57;2.83;;;;;4.10;98249.00;;;;10455051;28;20785;-74
2021/01/22 00:53:52;;;;;;;2.20;1.97;;;;;3.90;98278.00;;;;10454738;28;20190;-74
2021/01/22 00:58:54;;;;;;;4.73;3.00;;;;;3.80;98272.00;;;;10454727;28;20194;-74
2021/01/22 01:04:02;;;;;;;3.77;2.77;;;;;3.80;98292.00;;;;10421132;28;20218;-74
2021/01/22 01:09:13;;;;;;;6.60;2.90;;;;;3.80;98312.00;;;;10453466;28;20292;-74
2021/01/22 01:14:37;;;;;;;3.63;3.33;;;;;3.80;98327.00;;;;10437675;28;20276;-74
2021/01/22 01:19:39;;;;;;;5.43;3.87;;;;;3.90;98320.00;;;;10437932;28;20196;-74
2021/01/22 01:24:40;;;;;;;2.93;2.67;;;;;3.90;98328.00;;;;10455071;28;20601;-74
2021/01/22 01:29:41;;;;;;;5.53;3.67;;;;;3.80;98317.00;;;;10454312;28;20308;-74
2021/01/22 01:34:43;;;;;;;4.63;3.80;;;;;3.80;98334.00;;;;10420349;28;20289;-74
2021/01/22 01:39:44;;;;;;;6.40;4.23;;;;;3.90;98352.00;;;;10454980;28;20641;-74
2021/01/22 01:44:46;;;;;;;4.30;3.70;;;;;3.90;98353.00;;;;10435528;28;20246;-74
2021/01/22 01:49:47;;;;;;;3.33;2.70;;;;;3.90;98359.00;;;;10395637;28;20198;-74
2021/01/22 01:54:49;;;;;;;7.53;3.73;;;;;3.90;98347.00;;;;10412134;28;20183;-74
2021/01/22 01:59:50;;;;;;;5.77;3.23;;;;;3.80;98377.00;;;;10419440;28;20191;-74
2021/01/22 02:04:52;;;;;;;4.53;3.17;;;;;3.80;98394.00;;;;10402220;28;20574;-74
2021/01/22 02:09:54;;;;;;;3.53;2.47;;;;;3.80;98397.00;;;;10385814;28;20198;-74
2021/01/22 02:14:59;;;;;;;5.23;2.50;;;;;3.80;98392.00;;;;10436707;28;20524;-74
2021/01/22 02:20:18;;;;;;;6.77;2.70;;;;;3.80;98408.00;;;;10426125;28;20191;-74
2021/01/22 02:25:27;;;;;;;3.37;2.20;;;;;3.70;98399.00;;;;10426669;28;20221;-74
2021/01/22 02:30:30;;;;;;;7.37;2.70;;;;;3.70;98409.00;;;;10442906;28;20187;-74
2021/01/22 02:35:33;;;;;;;2.63;2.30;;;;;3.70;98398.00;;;;10409802;28;20202;-75
2021/01/22 02:40:37;;;;;;;4.97;3.17;;;;;3.70;98408.00;;;;10460159;28;20277;-75
2021/01/22 02:45:38;;;;;;;3.13;2.73;;;;;3.60;98401.00;;;;10458827;28;20214;-75
2021/01/22 02:50:42;;;;;;;4.70;3.57;;;;;3.60;98419.00;;;;10414149;28;20592;-75
2021/01/22 02:55:43;;;;;;;5.93;4.00;;;;;3.60;98423.00;;;;10416831;28;20237;-75
2021/01/22 03:00:51;;;;;;;7.87;3.93;;;;;3.50;98433.00;;;;10415774;28;20244;-73
2021/01/22 03:05:56;;;;;;;7.70;3.90;;;;;3.50;98446.00;;;;10398489;28;20211;-75
2021/01/22 03:10:58;;;;;;;4.77;2.83;;;;;3.50;98462.00;;;;10382462;28;20195;-75
2021/01/22 03:16:02;;;;;;;4.40;3.30;;;;;3.50;98455.00;;;;10398757;28;20726;-75
2021/01/22 03:21:09;;;;;;;5.27;2.90;;;;;3.50;98477.00;;;;10417089;28;20228;-75
2021/01/22 03:26:10;;;;;;;4.83;3.40;;;;;3.60;98487.00;;;;10414616;28;20207;-75
2021/01/22 03:31:13;;;;;;;6.83;3.03;;;;;3.70;98473.00;;;;10381967;28;20508;-75
2021/01/22 03:36:14;;;;;;;5.57;3.47;;;;;3.70;98487.00;;;;10415198;28;20195;-75
2021/01/22 03:41:16;;;;;;;9.40;4.53;;;;;3.70;98490.00;;;;10436808;28;20194;-75
2021/01/22 03:46:17;;;;;;;11.43;4.93;;;;;3.70;98496.00;;;;10438666;28;20222;-75
2021/01/22 03:51:19;;;;;;;8.90;5.40;;;;;3.80;98508.00;;;;10455435;28;20277;-75
2021/01/22 03:56:20;;;;;;;11.93;5.10;;;;;3.80;98499.00;;;;10438441;28;20236;-75
2021/01/22 04:01:22;;;;;;;12.17;5.00;;;;;3.90;98499.00;;;;10438119;28;20220;-75
2021/01/22 04:06:23;;;;;;;10.53;5.10;;;;;3.90;98498.00;;;;10455612;28;20222;-75
2021/01/22 04:11:24;;;;;;;8.50;4.50;;;;;3.90;98512.00;;;;10438248;28;20194;-75
2021/01/22 04:16:26;;;;;;;9.50;4.30;;;;;4.00;98505.00;;;;10405081;28;20206;-75
2021/01/22 04:21:28;;;;;;;15.83;4.63;;;;;4.10;98512.00;;;;10412217;28;20669;-75
2021/01/22 04:26:29;;;;;;;9.40;3.73;;;;;4.10;98515.00;;;;10413681;28;20233;-75
2021/01/22 04:31:31;;;;;;;7.87;3.77;;;;;4.20;98527.00;;;;10396806;28;20250;-75
2021/01/22 04:36:32;;;;;;;7.43;3.53;;;;;4.20;98531.00;;;;10395751;28;20191;-75
2021/01/22 04:41:33;;;;;;;8.13;3.30;;;;;4.30;98528.00;;;;10452095;28;20213;-75
2021/01/22 04:46:36;;;;;;;8.80;3.50;;;;;4.30;98540.00;;;;10453695;28;20210;-75
2021/01/22 04:51:39;;;;;;;6.37;3.50;;;;;4.30;98524.00;;;;10404241;28;20198;-75
2021/01/22 04:56:46;;;;;;;7.43;3.33;;;;;4.30;98524.00;;;;10453617;28;20190;-75
2021/01/22 05:01:48;;;;;;;8.00;3.73;;;;;4.20;98530.00;;;;10453180;28;20206;-75
2021/01/22 05:06:50;;;;;;;9.37;4.43;;;;;4.20;98537.00;;;;10436121;28;20257;-75
2021/01/22 05:11:53;;;;;;;4.27;3.70;;;;;4.30;98547.00;;;;10454510;28;20269;-74
2021/01/22 05:17:07;;;;;;;8.57;5.50;;;;;4.30;98542.00;;;;10419576;28;20240;-73
2021/01/22 05:22:14;;;;;;;8.00;4.93;;;;;4.20;98542.00;;;;10454117;28;20198;-76
2021/01/22 05:27:15;;;;;;;10.53;5.57;;;;;4.20;98538.00;;;;10453991;28;20253;-76
2021/01/22 05:32:24;;;;;;;8.63;5.50;;;;;4.20;98540.00;;;;10441538;28;20186;-75
2021/01/22 05:37:27;;;;;;;9.53;5.83;;;;;4.20;98536.00;;;;10460169;28;20659;-75
2021/01/22 05:42:45;;;;;;;10.83;5.30;;;;;4.20;98554.00;;;;10426804;28;20278;-76
2021/01/22 05:47:47;;;;;;;13.40;6.70;;;;;4.30;98551.00;;;;10426521;28;20267;-73
2021/01/22 05:52:48;;;;;;;11.77;6.03;;;;;4.30;98551.00;;;;10442979;28;20225;-73
2021/01/22 05:57:50;;;;;;;10.50;6.07;;;;;4.30;98553.00;;;;10458927;28;20190;-75
2021/01/22 06:02:51;;;;;;;11.93;6.70;;;;;4.30;98564.00;;;;10458793;28;20202;-75
2021/01/22 06:08:07;;;;;;;11.87;6.03;;;;;4.30;98570.00;;;;10441434;28;20733;-75
2021/01/22 06:13:09;;;;;;;8.93;5.60;;;;;4.20;98574.00;;;;10425722;28;20205;-75
2021/01/22 06:18:15;;;;;;;15.77;6.30;;;;;4.10;98575.00;;;;10441614;28;20194;-75
2021/01/22 06:23:17;;;;;;;15.53;9.37;;;;;4.10;98582.00;;;;10425919;28;20296;-73
2021/01/22 06:28:20;;;;;;;15.20;9.63;;;;;4.10;98583.00;;;;10460115;28;20216;-73
2021/01/22 06:33:23;;;;;;;9.93;6.27;;;;;4.10;98589.00;;;;10425847;28;20198;-75
2021/01/22 06:38:25;;;;;;;12.10;7.10;;;;;4.10;98590.00;;;;10440909;28;20281;-75
2021/01/22 06:43:28;;;;;;;12.10;6.50;;;;;4.00;98600.00;;;;10456479;28;20236;-74
2021/01/22 06:48:49;;;;;;;12.27;7.70;;;;;4.10;98612.00;;;;10458483;28;20657;-75
2021/01/22 06:54:03;;;;;;;11.60;8.93;;;;;4.10;98615.00;;;;10457701;28;20181;-75
2021/01/22 06:59:24;;;;;;;9.27;5.77;;;;;4.10;98626.00;;;;10424491;28;20202;-76
2021/01/22 07:04:29;;;;;;;14.10;5.93;;;;;4.10;98619.00;;;;10456595;28;20677;-76
2021/01/22 07:09:43;;;;;;;13.00;8.43;;;;;4.00;98627.00;;;;10456621;28;20183;-75
2021/01/22 07:14:47;;;;;;;20.30;11.73;;;;;4.00;98645.00;;;;10438524;28;20206;-75
2021/01/22 07:19:52;;;;;;;11.60;7.93;;;;;4.00;98655.00;;;;10416741;28;20197;-75
2021/01/22 07:24:59;;;;;;;11.47;6.37;;;;;3.90;98671.00;;;;10398796;28;20211;-76
2021/01/22 07:30:10;;;;;;;12.83;6.17;;;;;3.90;98670.00;;;;10398342;28;20540;-75
2021/01/22 07:35:23;;;;;;;9.10;5.60;;;;;3.80;98681.00;;;;10398749;28;20187;-75
2021/01/22 07:40:24;;;;;;;10.03;5.57;;;;;3.80;98695.00;;;;10431084;28;20195;-75
2021/01/22 07:45:26;;;;;;;11.80;5.57;;;;;3.80;98705.00;;;;10438491;28;20305;-75
2021/01/22 07:50:28;;;;;;;10.83;5.90;;;;;3.90;98713.00;;;;10422128;28;20511;-75
2021/01/22 07:55:30;;;;;;;10.70;8.20;;;;;4.00;98705.00;;;;10421373;28;20197;-75
2021/01/22 08:00:37;;;;;;;11.80;6.97;;;;;4.00;98718.00;;;;10421930;28;20235;-75
2021/01/22 08:05:40;;;;;;;9.37;5.37;;;;;4.00;98712.00;;;;10438305;28;20214;-75
2021/01/22 08:10:42;;;;;;;7.03;4.57;;;;;4.00;98714.00;;;;10437789;28;20190;-75
2021/01/22 08:15:44;;;;;;;9.53;4.17;;;;;4.10;98725.00;;;;10437551;28;20300;-75
2021/01/22 08:20:51;;;;;;;7.53;4.93;;;;;4.20;98745.00;;;;10432577;28;20212;-75
2021/01/22 08:25:59;;;;;;;13.33;4.10;;;;;4.30;98754.00;;;;10426148;28;20721;-75
2021/01/22 08:31:06;;;;;;;11.33;6.00;;;;;4.40;98768.00;;;;10412835;28;20208;-75
2021/01/22 08:36:08;;;;;;;11.40;4.70;;;;;4.50;98774.00;;;;10437592;28;20229;-75
2021/01/22 08:41:22;;;;;;;8.10;4.80;;;;;4.50;98774.00;;;;10437075;28;20196;-75
2021/01/22 08:46:24;;;;;;;8.13;4.27;;;;;4.60;98781.00;;;;10436632;28;20217;-76
2021/01/22 08:51:27;;;;;;;11.03;4.60;;;;;4.70;98787.00;;;;10436145;28;20285;-75
2021/01/22 08:56:29;;;;;;;10.50;3.80;;;;;4.80;98802.00;;;;10419844;28;20261;-75
2021/01/22 09:01:53;;;;;;;10.10;3.40;;;;;4.90;98805.00;;;;10418859;28;20205;-75
2021/01/22 09:07:02;;;;;;;7.27;3.57;;;;;5.00;98806.00;;;;10409128;28;20232;-75
2021/01/22 09:12:17;;;;;;;9.60;4.23;;;;;5.10;98803.00;;;;10444825;28;20186;-75
2021/01/22 09:17:39;;;;;;;7.17;3.90;;;;;5.10;98827.00;;;;10447008;28;20251;-75
2021/01/22 09:22:43;;;;;;;8.70;3.97;;;;;5.20;98833.00;;;;10417837;28;20202;-75
2021/01/22 09:27:46;;;;;;;6.60;3.10;;;;;5.30;98840.00;;;;10405271;28;20249;-75
2021/01/22 09:32:53;;;;;;;16.57;5.50;;;;;5.40;98843.00;;;;10421526;28;20198;-75
2021/01/22 09:37:55;;;;;;;8.37;3.47;;;;;5.60;98855.00;;;;10426849;28;20195;-75
2021/01/22 09:42:57;;;;;;;13.13;3.50;;;;;5.70;98854.00;;;;10389601;28;20225;-76
2021/01/22 09:47:58;;;;;;;8.53;3.23;;;;;5.80;98869.00;;;;10442861;28;20210;-75
2021/01/22 09:53:01;;;;;;;4.70;2.83;;;;;6.00;98872.00;;;;10424111;28;20205;-75
2021/01/22 09:58:22;;;;;;;9.63;3.33;;;;;6.10;98880.00;;;;10445240;28;20186;-76
2021/01/22 10:03:24;;;;;;;6.40;3.30;;;;;6.40;98868.00;;;;10441992;28;20639;-75
2021/01/22 10:08:25;;;;;;;9.00;3.60;;;;;6.70;98874.00;;;;10445353;28;20202;-75
2021/01/22 10:13:26;;;;;;;9.50;4.17;;;;;7.10;98877.00;;;;10426722;28;20245;-75
2021/01/22 10:18:28;;;;;;;6.20;3.77;;;;;7.50;98887.00;;;;10454270;28;20226;-73
2021/01/22 10:23:29;;;;;;;4.53;3.10;;;;;7.70;98889.00;;;;10431675;28;20198;-76
2021/01/22 10:28:31;;;;;;;6.43;2.90;;;;;7.60;98900.00;;;;10435003;28;20654;-77
2021/01/22 10:33:33;;;;;;;5.43;2.77;;;;;7.60;98899.00;;;;10442621;28;20198;-76
2021/01/22 10:38:35;;;;;;;8.93;2.50;;;;;7.60;98905.00;;;;10433864;28;20191;-74
2021/01/22 10:43:37;;;;;;;9.27;3.50;;;;;7.70;98902.00;;;;10422510;28;20266;-75
2021/01/22 10:48:38;;;;;;;11.03;2.87;;;;;7.70;98906.00;;;;10438111;28;20244;-75
2021/01/22 10:53:41;;;;;;;6.53;2.80;;;;;8.00;98910.00;;;;10459722;28;20189;-74
2021/01/22 10:58:42;;;;;;;8.37;2.67;;;;;8.30;98919.00;;;;10441144;28;20673;-75
2021/01/22 11:03:43;;;;;;;5.77;2.80;;;;;8.70;98917.00;;;;10427179;28;20218;-75
2021/01/22 11:08:45;;;;;;;5.33;2.37;;;;;8.80;98926.00;;;;10420514;28;20214;-74
2021/01/22 11:13:46;;;;;;;6.70;3.03;;;;;9.10;98928.00;;;;10456802;28;20189;-76
2021/01/22 11:18:47;;;;;;;6.80;2.20;;;;;9.40;98935.00;;;;10423789;28;20705;-76
2021/01/22 11:23:49;;;;;;;6.53;2.30;;;;;9.50;98946.00;;;;10439804;28;20213;-75
2021/01/22 11:28:50;;;;;;;8.77;3.30;;;;;9.70;98948.00;;;;10429485;28;20731;-75
2021/01/22 11:33:51;;;;;;;9.00;3.20;;;;;9.60;98955.00;;;;10408340;28;20319;-75
2021/01/22 11:38:53;;;;;;;9.50;2.97;;;;;9.80;98945.00;;;;10437299;28;20673;-75
2021/01/22 11:43:54;;;;;;;5.60;3.33;;;;;10.00;98950.00;;;;10422140;28;20214;-75
2021/01/22 11:48:55;;;;;;;5.43;3.03;;;;;10.20;98949.00;;;;10431837;28;20206;-75
2021/01/22 11:53:57;;;;;;;7.33;2.67;;;;;10.20;98932.00;;;;10431649;28;20542;-75
2021/01/22 11:58:58;;;;;;;3.83;1.70;;;;;10.40;98943.00;;;;10415469;28;20190;-75
2021/01/22 12:04:00;;;;;;;7.53;2.70;;;;;10.50;98935.00;;;;10425768;28;20332;-75
2021/01/22 12:09:04;;;;;;;17.10;7.73;;;;;10.50;98935.00;;;;10413241;28;20241;-75
2021/01/22 12:14:06;;;;;;;5.57;2.43;;;;;10.50;98946.00;;;;10424826;28;20236;-75
2021/01/22 12:19:07;;;;;;;6.10;2.63;;;;;10.60;98956.00;;;;10435232;28;20232;-75
2021/01/22 12:24:09;;;;;;;7.57;2.10;;;;;10.80;98953.00;;;;10435802;28;20361;-75
2021/01/22 12:29:10;;;;;;;6.00;2.43;;;;;10.80;98969.00;;;;10437216;28;20198;-75
2021/01/22 12:34:11;;;;;;;7.17;2.30;;;;;10.80;98973.00;;;;10455122;28;20712;-75
2021/01/22 12:39:13;;;;;;;5.30;2.07;;;;;10.80;98970.00;;;;10415197;28;20198;-75
2021/01/22 12:44:14;;;;;;;11.50;2.27;;;;;10.60;98971.00;;;;10418088;28;20310;-75
2021/01/22 12:49:15;;;;;;;6.43;1.80;;;;;10.60;98974.00;;;;10420315;28;20194;-75
2021/01/22 12:54:17;;;;;;;3.63;1.70;;;;;10.60;98976.00;;;;10412678;28;20197;-75
2021/01/22 12:59:18;;;;;;;4.80;1.83;;;;;10.40;98985.00;;;;10420630;28;20220;-74
2021/01/22 13:04:20;;;;;;;4.20;1.70;;;;;10.20;98980.00;;;;10420713;28;20250;-75
2021/01/22 13:09:22;;;;;;;4.40;1.83;;;;;10.20;98981.00;;;;10420399;28;20206;-75
2021/01/22 13:14:24;;;;;;;1.90;1.23;;;;;10.30;98981.00;;;;10436880;28;20618;-75
2021/01/22 13:19:28;;;;;;;3.27;1.63;;;;;10.20;98990.00;;;;10436425;28;20201;-74
2021/01/22 13:24:29;;;;;;;4.33;1.53;;;;;10.10;98986.00;;;;10453809;28;20210;-75
2021/01/22 13:29:30;;;;;;;5.87;1.50;;;;;10.00;98986.00;;;;10420367;28;20284;-75
2021/01/22 13:34:32;;;;;;;5.87;1.87;;;;;9.60;98995.00;;;;10437608;28;20277;-75
2021/01/22 13:39:33;;;;;;;7.40;1.70;;;;;9.30;98998.00;;;;10416361;28;20650;-74
2021/01/22 13:44:34;;;;;;;5.00;1.20;;;;;9.10;99000.00;;;;10436280;28;20305;-74
2021/01/22 13:49:36;;;;;;;6.53;1.50;;;;;9.30;99001.00;;;;10411805;28;20226;-75
2021/01/22 13:54:38;;;;;;;4.20;1.57;;;;;9.50;99011.00;;;;10420731;28;20642;-75
2021/01/22 13:59:39;;;;;;;5.13;1.93;;;;;9.90;99010.00;;;;10434697;28;20301;-75
2021/01/22 14:04:41;;;;;;;8.30;1.73;;;;;10.30;99009.00;;;;10442976;28;20214;-75
2021/01/22 14:09:42;;;;;;;8.43;2.27;;;;;10.20;99022.00;;;;10437676;28;20230;-75
2021/01/22 14:14:43;;;;;;;6.20;1.83;;;;;10.20;99008.00;;;;10450927;28;20265;-75
2021/01/22 14:19:44;;;;;;;5.53;1.37;;;;;10.30;99017.00;;;;10427257;28;20190;-75
2021/01/22 14:24:46;;;;;;;7.00;1.70;;;;;10.30;99021.00;;;;10401643;28;20273;-75
2021/01/22 14:29:47;;;;;;;9.03;2.10;;;;;9.90;99019.00;;;;10448344;28;20553;-75
2021/01/22 14:34:48;;;;;;;5.00;1.70;;;;;9.70;99030.00;;;;10460026;28;20658;-74
2021/01/22 14:39:50;;;;;;;7.87;1.90;;;;;9.30;99033.00;;;;10441759;28;20843;-74
2021/01/22 14:44:52;;;;;;;4.43;1.40;;;;;8.90;99025.00;;;;10431241;28;20206;-74
2021/01/22 14:49:53;;;;;;;4.07;1.43;;;;;8.50;99043.00;;;;10467770;28;20229;-74
2021/01/22 14:54:58;;;;;;;4.00;1.20;;;;;8.20;99040.00;;;;10427718;28;20198;-74
2021/01/22 14:59:59;;;;;;;4.77;1.83;;;;;8.00;99035.00;;;;10443042;28;20234;-74
2021/01/22 15:05:04;;;;;;;6.63;2.60;;;;;7.70;99035.00;;;;10452630;28;20213;-74
2021/01/22 15:10:06;;;;;;;9.93;6.00;;;;;7.50;99030.00;;;;10441389;28;20260;-73
2021/01/22 15:15:08;;;;;;;7.93;1.90;;;;;7.30;99049.00;;;;10446830;28;20202;-73
2021/01/22 15:20:10;;;;;;;5.23;1.83;;;;;7.10;99036.00;;;;10458766;28;20201;-73
2021/01/22 15:25:11;;;;;;;18.67;8.67;;;;;7.00;99033.00;;;;10457940;28;20657;-73
2021/01/22 15:30:13;;;;;;;5.10;2.37;;;;;6.80;99052.00;;;;10456726;28;20276;-74
2021/01/22 15:35:15;;;;;;;6.20;3.10;;;;;6.70;99044.00;;;;10441414;28;20217;-74
2021/01/22 15:40:19;;;;;;;12.70;6.00;;;;;6.50;99047.00;;;;10422698;28;20190;-74
2021/01/22 15:45:20;;;;;;;8.30;2.30;;;;;6.40;99052.00;;;;10422598;28;20237;-74
2021/01/22 15:50:21;;;;;;;6.33;1.77;;;;;6.20;99044.00;;;;10405906;28;20542;-74
2021/01/22 15:55:23;;;;;;;3.87;2.00;;;;;5.90;99043.00;;;;10437442;28;20731;-74
2021/01/22 16:00:24;;;;;;;8.90;2.20;;;;;5.60;99037.00;;;;10437331;28;20240;-74
2021/01/22 16:05:27;;;;;;;6.00;2.00;;;;;5.30;99039.00;;;;10436046;28;20234;-74
2021/01/22 16:10:32;;;;;;;9.57;2.70;;;;;5.00;99060.00;;;;10452318;28;20205;-74
2021/01/22 16:15:33;;;;;;;9.57;2.27;;;;;4.70;99057.00;;;;10420219;28;20186;-74
2021/01/22 16:20:35;;;;;;;5.87;2.13;;;;;4.50;99057.00;;;;10430599;28;20226;-74
2021/01/22 16:25:36;;;;;;;4.90;2.80;;;;;4.30;99067.00;;;;10416983;28;20237;-74
2021/01/22 16:30:38;;;;;;;16.50;9.63;;;;;4.20;99073.00;;;;10436344;28;20237;-74
2021/01/22 16:35:39;;;;;;;11.40;4.80;;;;;4.00;99071.00;;;;10432018;28;20282;-74
2021/01/22 16:40:41;;;;;;;13.17;4.83;;;;;3.90;99079.00;;;;10434540;28;20190;-74
2021/01/22 16:45:44;;;;;;;7.33;5.70;;;;;3.80;99077.00;;;;10415581;28;20213;-74
2021/01/22 16:50:46;;;;;;;9.63;5.80;;;;;3.70;99083.00;;;;10394248;28;20206;-74
2021/01/22 16:55:47;;;;;;;8.20;3.10;;;;;3.60;99087.00;;;;10412801;28;20709;-74
2021/01/22 17:00:51;;;;;;;7.77;3.40;;;;;3.50;99093.00;;;;10412864;28;20198;-74
2021/01/22 17:05:53;;;;;;;8.80;3.33;;;;;3.40;99094.00;;;;10396574;28;20326;-74
2021/01/22 17:10:54;;;;;;;10.93;3.57;;;;;3.40;99097.00;;;;10379827;28;20286;-74
2021/01/22 17:15:55;;;;;;;10.73;5.97;;;;;3.30;99105.00;;;;10442481;28;20221;-74
2021/01/22 17:20:57;;;;;;;15.87;9.63;;;;;3.20;99107.00;;;;10437366;28;20650;-74
2021/01/22 17:25:58;;;;;;;13.13;7.27;;;;;3.10;99101.00;;;;10457153;28;20301;-74
2021/01/22 17:30:59;;;;;;;14.57;8.20;;;;;3.10;99116.00;;;;10462307;28;20194;-74
2021/01/22 17:36:03;;;;;;;11.13;4.60;;;;;3.20;99115.00;;;;10445571;28;20213;-74
2021/01/22 17:41:06;;;;;;;8.50;5.57;;;;;3.20;99125.00;;;;10428366;28;20609;-74
2021/01/22 17:46:11;;;;;;;8.80;5.70;;;;;3.10;99128.00;;;;10461572;28;20405;-74
2021/01/22 17:51:15;;;;;;;18.80;9.47;;;;;2.90;99128.00;;;;10444234;28;20574;-74
2021/01/22 17:56:19;;;;;;;10.77;6.10;;;;;2.80;99137.00;;;;10462408;28;20186;-74
2021/01/22 18:01:20;;;;;;;14.47;3.70;;;;;2.70;99134.00;;;;10460821;28;20225;-74
2021/01/22 18:06:22;;;;;;;9.77;2.83;;;;;2.70;99132.00;;;;10461742;28;20206;-74
2021/01/22 18:11:24;;;;;;;5.23;3.57;;;;;2.80;99141.00;;;;10443530;28;20230;-74
2021/01/22 18:16:25;;;;;;;10.20;3.47;;;;;2.80;99141.00;;;;10443545;28;20596;-75
2021/01/22 18:21:27;;;;;;;9.53;3.57;;;;;2.70;99153.00;;;;10460934;28;20217;-75
2021/01/22 18:26:28;;;;;;;10.10;3.90;;;;;2.80;99158.00;;;;10442559;28;20210;-75
2021/01/22 18:31:30;;;;;;;9.67;4.30;;;;;2.90;99170.00;;;;10426194;28;20221;-75
2021/01/22 18:36:35;;;;;;;7.67;4.07;;;;;2.90;99173.00;;;;10426010;28;20190;-75
2021/01/22 18:41:36;;;;;;;9.83;4.63;;;;;2.90;99180.00;;;;10442128;28;20221;-75
2021/01/22 18:46:40;;;;;;;8.47;4.80;;;;;2.90;99178.00;;;;10426236;28;20221;-75
2021/01/22 18:51:42;;;;;;;7.57;5.47;;;;;2.80;99164.00;;;;10425449;28;20199;-75
2021/01/22 18:56:43;;;;;;;10.47;5.30;;;;;2.80;99175.00;;;;10458441;28;20711;-75
2021/01/22 19:01:44;;;;;;;12.10;4.97;;;;;2.70;99170.00;;;;10441079;28;20253;-75
2021/01/22 19:06:46;;;;;;;12.90;4.80;;;;;2.70;99180.00;;;;10442124;28;20626;-75
2021/01/22 19:11:49;;;;;;;10.43;4.30;;;;;2.70;99173.00;;;;10457770;28;20641;-75
2021/01/22 19:16:50;;;;;;;13.07;5.33;;;;;2.60;99173.00;;;;10459253;28;20190;-75
2021/01/22 19:21:52;;;;;;;10.33;5.10;;;;;2.60;99172.00;;;;10440851;28;20642;-75
2021/01/22 19:26:53;;;;;;;9.67;4.77;;;;;2.60;99175.00;;;;10407916;28;20604;-75
2021/01/22 19:31:55;;;;;;;10.97;5.53;;;;;2.60;99177.00;;;;10423966;28;20724;-75
2021/01/22 19:36:56;;;;;;;12.50;5.53;;;;;2.50;99182.00;;;;10457514;28;20228;-75
2021/01/22 19:41:57;;;;;;;12.63;6.50;;;;;2.50;99189.00;;;;10439976;28;20226;-75
2021/01/22 19:46:59;;;;;;;9.50;5.40;;;;;2.50;99191.00;;;;10458431;28;20214;-74
2021/01/22 19:52:03;;;;;;;15.07;6.50;;;;;2.40;99198.00;;;;10423203;28;20264;-75
2021/01/22 19:57:04;;;;;;;12.90;7.20;;;;;2.40;99191.00;;;;10456896;28;20241;-75
2021/01/22 20:02:06;;;;;;;12.70;7.50;;;;;2.30;99184.00;;;;10423354;28;20201;-75
2021/01/22 20:07:07;;;;;;;12.97;7.43;;;;;2.20;99200.00;;;;10422840;28;20707;-75
2021/01/22 20:12:09;;;;;;;11.90;6.57;;;;;2.20;99190.00;;;;10439655;28;20190;-75
2021/01/22 20:17:11;;;;;;;10.37;6.60;;;;;2.20;99197.00;;;;10456073;28;20562;-75
2021/01/22 20:22:13;;;;;;;14.87;8.10;;;;;2.20;99196.00;;;;10455866;28;20213;-75
2021/01/22 20:27:16;;;;;;;13.87;7.23;;;;;2.20;99194.00;;;;10455367;28;20210;-75
2021/01/22 20:32:17;;;;;;;12.07;6.83;;;;;2.30;99201.00;;;;10419545;28;20661;-75
2021/01/22 20:37:19;;;;;;;13.83;6.70;;;;;2.50;99196.00;;;;10432311;28;20190;-75
2021/01/22 20:42:20;;;;;;;14.03;7.47;;;;;2.60;99207.00;;;;10455192;28;20220;-75
2021/01/22 20:47:23;;;;;;;17.83;8.27;;;;;2.50;99193.00;;;;10438402;28;20305;-75
2021/01/22 20:52:24;;;;;;;16.43;8.60;;;;;2.50;99196.00;;;;10438733;28;20799;-75
2021/01/22 20:57:25;;;;;;;14.80;8.93;;;;;2.30;99197.00;;;;10437634;28;20228;-75
2021/01/22 21:02:27;;;;;;;14.67;8.43;;;;;2.30;99213.00;;;;10459776;28;20229;-75
2021/01/22 21:07:29;;;;;;;13.97;7.60;;;;;2.30;99207.00;;;;10463399;28;20300;-75
2021/01/22 21:12:30;;;;;;;19.50;9.23;;;;;2.40;99210.00;;;;10446597;28;20561;-75
2021/01/22 21:17:31;;;;;;;15.60;9.23;;;;;2.40;99203.00;;;;10445877;28;20642;-75
2021/01/22 21:22:33;;;;;;;15.33;9.07;;;;;2.30;99206.00;;;;10446097;28;20194;-75
2021/01/22 21:27:34;;;;;;;14.07;7.23;;;;;2.40;99185.00;;;;10462715;28;20245;-75
2021/01/22 21:32:36;;;;;;;14.50;8.20;;;;;2.50;99176.00;;;;10446059;28;20201;-75
2021/01/22 21:37:39;;;;;;;11.80;7.73;;;;;2.50;99180.00;;;;10463447;28;20269;-75
2021/01/22 21:42:40;;;;;;;12.67;7.97;;;;;2.50;99179.00;;;;10444840;28;20214;-75
2021/01/22 21:47:41;;;;;;;16.93;9.03;;;;;2.50;99182.00;;;;10428241;28;20616;-75
2021/01/22 21:52:43;;;;;;;20.67;11.03;;;;;2.50;99193.00;;;;10462832;28;20218;-75
2021/01/22 21:57:44;;;;;;;18.27;10.37;;;;;2.30;99192.00;;;;10427830;28;20248;-75
2021/01/22 22:02:46;;;;;;;16.60;10.40;;;;;2.20;99193.00;;;;10461706;28;20217;-75
2021/01/22 22:07:47;;;;;;;21.10;10.83;;;;;2.10;99199.00;;;;10461574;28;20213;-75
2021/01/22 22:12:48;;;;;;;17.27;9.77;;;;;2.00;99191.00;;;;10459837;28;20186;-75
2021/01/22 22:17:50;;;;;;;17.23;10.57;;;;;2.00;99193.00;;;;10426929;28;20202;-75
2021/01/22 22:22:51;;;;;;;17.40;10.10;;;;;1.90;99190.00;;;;10461130;28;20221;-75
2021/01/22 22:27:53;;;;;;;16.37;8.40;;;;;1.90;99188.00;;;;10459745;28;20697;-75
2021/01/22 22:32:55;;;;;;;11.00;8.57;;;;;2.10;99190.00;;;;10459883;28;20194;-75
2021/01/22 22:37:57;;;;;;;15.50;8.33;;;;;2.30;99196.00;;;;10459824;28;20585;-75
2021/01/22 22:42:58;;;;;;;14.20;8.87;;;;;2.50;99191.00;;;;10442367;28;20260;-75
2021/01/22 22:47:59;;;;;;;12.83;7.63;;;;;2.50;99194.00;;;;10442136;28;20268;-75
2021/01/22 22:53:02;;;;;;;18.87;8.83;;;;;2.60;99195.00;;;;10442109;28;20183;-75
2021/01/22 22:58:04;;;;;;;9.50;7.47;;;;;2.60;99190.00;;;;10458537;28;20210;-75
2021/01/22 23:03:05;;;;;;;16.07;9.17;;;;;2.60;99189.00;;;;10458476;28;20244;-75
2021/01/22 23:08:06;;;;;;;15.67;8.90;;;;;2.50;99185.00;;;;10440458;28;20230;-75
2021/01/22 23:13:08;;;;;;;16.83;8.63;;;;;2.40;99182.00;;;;10431406;28;20253;-75
2021/01/22 23:18:10;;;;;;;14.40;8.13;;;;;2.40;99184.00;;;;10470103;28;20210;-75
2021/01/22 23:23:18;;;;;;;13.17;8.17;;;;;2.50;99177.00;;;;10429388;28;20573;-75
2021/01/22 23:28:20;;;;;;;13.63;8.47;;;;;2.40;99176.00;;;;10423244;28;20206;-75
2021/01/22 23:33:21;;;;;;;12.50;8.40;;;;;2.40;99175.00;;;;10411480;28;20203;-75
2021/01/22 23:38:22;;;;;;;17.80;7.00;;;;;2.30;99170.00;;;;10417277;28;20187;-75
2021/01/22 23:43:24;;;;;;;15.07;8.60;;;;;2.30;99147.00;;;;10389734;28;20280;-75
2021/01/22 23:48:25;;;;;;;13.87;8.53;;;;;2.30;99158.00;;;;10447483;28;20589;-75
2021/01/22 23:53:27;;;;;;;14.67;9.27;;;;;2.20;99153.00;;;;10416373;28;20217;-75
2021/01/22 23:58:28;;;;;;;12.57;7.87;;;;;2.20;99152.00;;;;10423046;28;20194;-75
